KNBG/NBG METAR and TAF weather

Enter ICAO airport designator
Station Type Date Time Source
KNBG METAR 2020/06/03 21:55 UTC NOAA

KNBG 032155Z 17007KT 10SM SCT020 BKN035 BKN100 BKN250 27/25 A2993 RMK AO2 SLP135 T02720250 $


Station Type Date Time Source
KNBG Decoded METAR 2020/06/03 21:55 UTC NOAA

NEW ORLEANS NAVAL AIR STN, LA, United States (KNBG) 29-50N 90-01W
Jun 03, 2020 - 05:55 PM EDT / 2020.06.03 2155 UTC
Wind: from the S (170 degrees) at 8 MPH (7 KT):0
Visibility: 10 mile(s):0
Sky conditions: mostly cloudy
Temperature: 81.0 F (27.2 C)
Dew Point: 77.0 F (25.0 C)
Relative Humidity: 87%
Pressure (altimeter): 29.93 in. Hg (1013 hPa)
ob: KNBG 032155Z 17007KT 10SM SCT020 BKN035 BKN100 BKN250 27/25 A2993 RMK AO2 SLP135 T02720250
cycle: 22

Station Type Date Time Source
KNBG TAF 2020/06/03 15:59 UTC NOAA

TAF KNBG 0315/0415 14010KT 9999 VCTS SCT015CB BKN035 BKN120 BKN250 QNH2993INS
TEMPO 0315/0321 VRB25G35KT 1200 +TSRA BR BKN013CB OVC030
TEMPO 0321/0302 VRB25G35KT 3200 TSRA BR BKN020CB BKN030 OVC080
BECMG 0402/0404 VRB06KT 4800 BR FEW020 SCT110 SCT250 QNH2996INS
BECMG 0413/0415 11005KT 9999 VCTS SCT015CB BKN035 BKN130 OVC250 QNH2985INS T31/0320Z T22/0412Z FN20039

Example: see airport list